Time;durP1;ratioP1;P1;durP2;ratioP2;P2;SDS_P1;SDS_P2;PMS_P1;PMS_P2;Temp;Humidity;BMP_temperature;BMP_pressure;BME280_temperature;BME280_humidity;BME280_pressure;Samples;Min_cycle;Max_cycle;Signal;HPM_P1;HPM_P2
2021/06/29 00:02:14;;;;;;;14.40;9.70;;;;;;;19.52;73.83;96709.38;5135129;27;20537;-63
2021/06/29 00:04:40;;;;;;;15.63;8.90;;;;;;;19.51;74.07;96708.53;5135214;27;20030;-65
2021/06/29 00:07:05;;;;;;;13.70;11.68;;;;;;;19.45;75.46;96712.47;5135122;27;20476;-61
2021/06/29 00:09:31;;;;;;;22.85;10.65;;;;;;;19.45;74.78;96698.38;5134383;27;20023;-62
2021/06/29 00:11:57;;;;;;;13.95;8.18;;;;;;;19.45;73.07;96698.38;5134971;27;20121;-62
2021/06/29 00:14:23;;;;;;;12.73;8.70;;;;;;;19.39;73.36;96698.81;5134635;27;20055;-64
2021/06/29 00:16:49;;;;;;;12.50;8.60;;;;;;;19.39;73.29;96706.78;5134823;27;20024;-63
2021/06/29 00:19:15;;;;;;;19.33;10.82;;;;;;;19.35;74.66;96692.88;5134791;27;20031;-66
2021/06/29 00:21:40;;;;;;;18.98;10.40;;;;;;;19.38;74.32;96697.97;5134694;27;20380;-64
2021/06/29 00:24:06;;;;;;;10.98;7.43;;;;;;;19.40;73.54;96693.41;5134794;27;20022;-62
2021/06/29 00:26:32;;;;;;;15.45;10.23;;;;;;;19.39;73.63;96689.03;5134943;27;20019;-65
2021/06/29 00:28:58;;;;;;;13.23;9.57;;;;;;;19.41;73.67;96686.28;5116218;27;20027;-63
2021/06/29 00:31:24;;;;;;;16.70;8.05;;;;;;;19.43;73.34;96679.94;5134571;27;20110;-62
2021/06/29 00:33:50;;;;;;;18.60;10.60;;;;;;;19.39;74.00;96689.03;5134487;27;20111;-63
2021/06/29 00:36:16;;;;;;;14.07;8.00;;;;;;;19.37;73.82;96687.47;5134429;27;20038;-61
2021/06/29 00:38:43;;;;;;;15.90;9.27;;;;;;;19.29;74.10;96685.34;5134468;27;20022;-65
2021/06/29 00:41:08;;;;;;;8.75;7.60;;;;;;;19.27;73.78;96684.63;5134377;27;20091;-64
2021/06/29 00:43:34;;;;;;;12.40;8.45;;;;;;;19.27;73.64;96684.63;5134510;27;20098;-64
2021/06/29 00:46:00;;;;;;;11.88;7.85;;;;;;;19.24;73.51;96677.75;5134308;27;20038;-65
2021/06/29 00:48:25;;;;;;;13.35;8.65;;;;;;;19.21;73.31;96682.41;5134207;27;20035;-66
2021/06/29 00:50:51;;;;;;;11.55;8.75;;;;;;;19.12;73.50;96682.13;5134226;27;20034;-62
2021/06/29 00:53:17;;;;;;;15.93;9.93;;;;;;;19.11;74.29;96682.22;5134209;27;20019;-63
2021/06/29 00:55:43;;;;;;;7.35;6.40;;;;;;;19.15;73.31;96676.56;5134485;27;20025;-63
2021/06/29 00:58:10;;;;;;;17.13;9.68;;;;;;;19.12;73.76;96674.16;5134216;27;20019;-62
2021/06/29 01:00:38;;;;;;;11.00;7.22;;;;;;;19.10;73.81;96672.56;5134200;27;20019;-62
2021/06/29 01:03:04;;;;;;;11.25;8.20;;;;;;;19.03;74.93;96672.13;5134157;27;20023;-64
2021/06/29 01:05:30;;;;;;;16.33;8.43;;;;;;;19.01;75.42;96666.06;5134239;27;20045;-60
2021/06/29 01:07:55;;;;;;;14.18;9.32;;;;;;;19.01;75.26;96671.38;5134070;27;20019;-61
2021/06/29 01:10:22;;;;;;;11.15;7.55;;;;;;;18.98;74.50;96669.78;5133955;28;20019;-64
2021/06/29 01:12:47;;;;;;;11.23;8.75;;;;;;;19.00;74.14;96673.19;5115844;28;20072;-65
2021/06/29 01:15:13;;;;;;;13.32;7.35;;;;;;;19.00;74.31;96673.19;5133722;28;20047;-62
2021/06/29 01:17:39;;;;;;;19.15;9.07;;;;;;;18.96;73.99;96673.50;5134085;28;20023;-61
2021/06/29 01:20:13;;;;;;;11.82;6.63;;;;;;;18.93;74.38;96667.47;5134188;27;20046;-63
2021/06/29 01:22:39;;;;;;;10.30;7.22;;;;;;;18.94;73.81;96670.97;5138172;27;20058;-63
2021/06/29 01:25:05;;;;;;;9.30;7.20;;;;;;;18.92;73.86;96660.47;5138283;27;20058;-63
2021/06/29 01:32:27;;;;;;;19.80;8.43;;;;;;;18.98;73.49;96663.63;5138130;27;20027;-65
2021/06/29 01:34:53;;;;;;;13.85;8.13;;;;;;;18.89;74.28;96663.34;5137988;27;20493;-63
2021/06/29 01:37:20;;;;;;;14.65;8.68;;;;;;;18.86;74.78;96665.34;5138118;27;20490;-63
2021/06/29 01:40:11;;;;;;;11.32;7.88;;;;;;;18.84;75.84;96665.44;5137884;27;20461;-61
2021/06/29 01:42:37;;;;;;;9.23;8.15;;;;;;;18.80;75.67;96666.63;5137970;27;20140;-61
2021/06/29 01:45:05;;;;;;;11.32;6.82;;;;;;;18.78;75.15;96665.91;5137813;27;20098;-64
2021/06/29 01:47:41;;;;;;;8.25;7.28;;;;;;;18.78;74.29;96663.25;5137714;27;20032;-60
2021/06/29 01:50:08;;;;;;;12.50;6.75;;;;;;;18.74;74.90;96664.41;5137752;27;20110;-61
2021/06/29 01:52:34;;;;;;;12.48;8.70;;;;;;;18.68;75.10;96663.88;5137720;27;20022;-65
2021/06/29 01:55:00;;;;;;;14.52;8.48;;;;;;;18.70;75.13;96658.47;5137783;27;20023;-65
2021/06/29 01:57:25;;;;;;;11.35;8.23;;;;;;;18.67;75.46;96667.47;5137577;27;20071;-62
2021/06/29 01:59:51;;;;;;;9.75;7.68;;;;;;;18.64;75.36;96670.34;5137419;27;20031;-65
2021/06/29 02:02:16;;;;;;;13.68;7.43;;;;;;;18.63;75.03;96668.63;5137533;27;20030;-63
2021/06/29 02:04:42;;;;;;;10.98;8.40;;;;;;;18.65;74.59;96669.38;5137470;27;20039;-64
2021/06/29 02:07:08;;;;;;;9.93;7.28;;;;;;;18.63;74.31;96671.28;5137572;27;20104;-64
2021/06/29 02:09:34;;;;;;;15.55;8.20;;;;;;;18.65;74.57;96674.69;5137365;27;20053;-62
2021/06/29 02:11:59;;;;;;;11.05;6.55;;;;;;;18.55;74.54;96670.97;5137260;27;20042;-64
2021/06/29 02:14:26;;;;;;;13.95;8.35;;;;;;;18.51;74.95;96672.16;5137035;27;20049;-63
2021/06/29 02:16:51;;;;;;;9.15;8.07;;;;;;;18.42;75.34;96676.25;5137073;27;20449;-61
2021/06/29 02:19:17;;;;;;;16.13;8.02;;;;;;;18.43;75.56;96681.44;5137078;27;20027;-63
2021/06/29 02:21:42;;;;;;;14.73;6.93;;;;;;;18.44;74.96;96683.16;5137073;27;20052;-63
2021/06/29 02:24:08;;;;;;;7.82;7.05;;;;;;;18.49;74.33;96681.97;5136982;27;20048;-65
2021/06/29 02:26:33;;;;;;;10.70;5.97;;;;;;;18.48;74.12;96680.31;5136961;27;20015;-63
2021/06/29 02:28:59;;;;;;;8.55;6.38;;;;;;;18.42;74.28;96674.44;5136948;27;20396;-60
2021/06/29 02:31:25;;;;;;;12.95;7.22;;;;;;;18.43;74.19;96681.44;5136884;27;20072;-61
2021/06/29 02:33:50;;;;;;;15.05;9.27;;;;;;;18.46;74.51;96675.09;5136082;27;20023;-66
2021/06/29 02:36:16;;;;;;;12.13;7.60;;;;;;;18.48;74.73;96673.19;5136805;27;20042;-62
2021/06/29 02:38:41;;;;;;;10.77;7.45;;;;;;;18.49;74.24;96668.75;5136840;27;20023;-63
2021/06/29 02:41:07;;;;;;;8.82;7.00;;;;;;;18.41;74.11;96675.41;5136865;27;20057;-63
2021/06/29 02:43:35;;;;;;;12.60;7.80;;;;;;;18.34;74.31;96671.50;5136647;27;20023;-64
2021/06/29 02:46:01;;;;;;;10.00;6.72;;;;;;;18.33;73.64;96669.78;5136535;27;20038;-60
2021/06/29 02:48:26;;;;;;;15.95;7.60;;;;;;;18.33;74.41;96666.28;5136610;27;20024;-65
2021/06/29 02:50:52;;;;;;;11.48;7.95;;;;;;;18.29;74.35;96671.78;5136478;27;20473;-62
2021/06/29 02:53:17;;;;;;;17.38;9.40;;;;;;;18.25;75.72;96670.31;5136490;27;20056;-63
2021/06/29 02:55:43;;;;;;;9.43;7.35;;;;;;;18.27;76.01;96671.03;5136650;27;20121;-64
2021/06/29 02:58:08;;;;;;;14.70;7.93;;;;;;;18.27;75.96;96670.22;5136475;27;20027;-64
2021/06/29 03:00:34;;;;;;;14.43;8.60;;;;;;;18.26;75.69;96671.13;5136393;27;20019;-64
2021/06/29 03:03:00;;;;;;;15.65;8.38;;;;;;;18.25;75.65;96665.03;5136270;27;20030;-62
2021/06/29 03:05:25;;;;;;;12.57;8.60;;;;;;;18.27;75.34;96664.91;5136174;27;20086;-65
2021/06/29 03:07:51;;;;;;;9.40;6.82;;;;;;;18.26;75.11;96666.72;5136366;27;20422;-62
2021/06/29 03:10:16;;;;;;;10.73;7.60;;;;;;;18.21;76.04;96663.50;5136363;27;20418;-61
2021/06/29 03:12:42;;;;;;;11.35;7.47;;;;;;;18.25;75.61;96669.44;5136111;27;20464;-64
2021/06/29 03:15:09;;;;;;;16.73;9.95;;;;;;;18.29;75.40;96657.69;5135821;27;20389;-60
2021/06/29 03:17:35;;;;;;;10.32;7.63;;;;;;;18.27;76.06;96664.91;5136066;27;20037;-64
2021/06/29 03:20:01;;;;;;;8.02;6.70;;;;;;;18.39;75.15;96660.59;5135998;27;20023;-65
2021/06/29 03:22:27;;;;;;;16.52;8.48;;;;;;;18.42;74.37;96665.66;5136025;27;20104;-61
2021/06/29 03:24:52;;;;;;;8.35;6.47;;;;;;;18.44;74.68;96666.41;5135830;27;20062;-64
2021/06/29 03:27:18;;;;;;;15.65;8.25;;;;;;;18.57;74.42;96666.41;5136053;27;20073;-62
2021/06/29 03:29:45;;;;;;;11.43;6.93;;;;;;;18.73;74.67;96666.22;5135883;27;20532;-64
2021/06/29 03:32:11;;;;;;;9.45;7.07;;;;;;;19.03;73.92;96669.47;5135797;27;20027;-62
2021/06/29 03:34:37;;;;;;;10.38;6.00;;;;;;;19.39;72.69;96672.28;5135731;27;20401;-64
2021/06/29 03:37:04;;;;;;;10.65;5.82;;;;;;;19.75;71.05;96673.22;5135571;27;20106;-64
2021/06/29 03:39:31;;;;;;;14.05;5.68;;;;;;;20.01;70.71;96673.13;5135648;27;20030;-63
2021/06/29 03:41:56;;;;;;;10.43;6.80;;;;;;;20.37;70.55;96669.63;5135674;27;20015;-61
2021/06/29 03:44:22;;;;;;;6.05;5.18;;;;;;;20.77;69.02;96669.22;5134438;27;20019;-64
2021/06/29 03:46:48;;;;;;;9.25;5.20;;;;;;;21.14;67.27;96668.19;5135507;27;20453;-65
2021/06/29 03:49:14;;;;;;;11.80;5.60;;;;;;;21.50;66.62;96669.81;5135311;27;20051;-63
2021/06/29 03:51:42;;;;;;;7.88;5.20;;;;;;;21.66;66.33;96670.28;5135338;27;20058;-63
2021/06/29 03:54:08;;;;;;;9.90;5.43;;;;;;;21.87;66.27;96677.50;5135400;27;20079;-65
2021/06/29 03:56:34;;;;;;;9.73;5.20;;;;;;;22.17;65.34;96673.28;5135293;27;20350;-64
2021/06/29 03:59:03;;;;;;;8.10;5.13;;;;;;;22.61;65.01;96671.50;5135145;27;20144;-67
2021/06/29 04:01:29;;;;;;;10.68;5.60;;;;;;;22.95;64.10;96665.91;5135205;27;20481;-64
2021/06/29 04:03:56;;;;;;;13.40;4.40;;;;;;;23.30;62.57;96664.66;5135070;27;20472;-66
2021/06/29 04:06:27;;;;;;;10.45;4.95;;;;;;;23.63;61.64;96669.00;5135108;27;20103;-64
2021/06/29 04:08:53;;;;;;;9.73;5.47;;;;;;;23.85;61.90;96663.41;5135157;27;20015;-63
2021/06/29 04:11:19;;;;;;;6.32;4.82;;;;;;;24.09;61.49;96666.63;5135062;27;20050;-65
2021/06/29 04:13:46;;;;;;;8.07;4.78;;;;;;;24.42;61.19;96666.38;5134827;27;20019;-65
2021/06/29 04:16:12;;;;;;;5.60;4.28;;;;;;;24.82;60.43;96665.28;5134546;27;20062;-66
2021/06/29 04:18:37;;;;;;;4.95;4.30;;;;;;;25.19;59.34;96660.97;5134847;27;20023;-65
2021/06/29 04:21:03;;;;;;;7.40;4.20;;;;;;;25.55;57.61;96664.75;5134766;27;20372;-63
2021/06/29 04:23:29;;;;;;;9.40;4.93;;;;;;;25.82;56.17;96663.88;5134682;27;20098;-65
2021/06/29 04:25:55;;;;;;;7.10;4.35;;;;;;;26.04;56.55;96669.78;5116282;27;20030;-62
2021/06/29 04:28:21;;;;;;;8.75;4.50;;;;;;;26.26;56.30;96673.00;5134782;27;20019;-66
2021/06/29 04:30:46;;;;;;;7.38;4.60;;;;;;;26.51;56.21;96670.53;5134593;27;20031;-65
2021/06/29 04:33:12;;;;;;;5.78;4.10;;;;;;;26.80;56.20;96672.06;5134736;27;20071;-64
2021/06/29 04:35:38;;;;;;;6.30;4.38;;;;;;;27.07;55.65;96677.44;5134610;27;20035;-67
2021/06/29 04:38:03;;;;;;;5.13;4.68;;;;;;;27.33;55.27;96672.03;5134550;27;20023;-65
2021/06/29 04:40:29;;;;;;;8.80;4.75;;;;;;;27.51;54.20;96671.06;5134539;27;20564;-64
2021/06/29 04:42:55;;;;;;;9.70;4.90;;;;;;;27.71;53.63;96673.53;5134614;27;20346;-64
2021/06/29 04:45:22;;;;;;;5.28;4.13;;;;;;;28.04;53.68;96670.06;5134447;27;20372;-64
2021/06/29 04:47:48;;;;;;;4.68;4.10;;;;;;;28.38;52.71;96669.09;5134323;27;20476;-63
2021/06/29 04:50:15;;;;;;;6.20;4.22;;;;;;;28.69;52.20;96667.56;5134231;27;20019;-65
2021/06/29 04:52:41;;;;;;;6.47;4.18;;;;;;;28.96;51.50;96671.75;5134371;27;20023;-66
2021/06/29 04:55:08;;;;;;;10.07;4.57;;;;;;;29.26;51.03;96666.59;5134004;27;20054;-64
2021/06/29 04:57:34;;;;;;;6.05;3.92;;;;;;;29.47;50.64;96667.03;5134209;27;20524;-67
2021/06/29 05:00:06;;;;;;;10.52;4.60;;;;;;;29.71;50.59;96666.09;5134267;27;20031;-63
2021/06/29 05:02:32;;;;;;;12.18;5.07;;;;;;;29.89;49.90;96654.22;5134107;27;20464;-65
2021/06/29 05:04:58;;;;;;;6.28;5.20;;;;;;;30.00;49.86;96658.31;5129652;27;20535;-69
2021/06/29 05:07:24;;;;;;;7.07;5.20;;;;;;;30.15;49.46;96663.78;5113627;28;20023;-69
2021/06/29 05:09:49;;;;;;;7.88;5.47;;;;;;;30.34;48.93;96665.19;5113596;28;20067;-64
2021/06/29 05:12:15;;;;;;;12.50;6.55;;;;;;;30.50;48.21;96668.78;5113604;28;20030;-63
2021/06/29 05:14:41;;;;;;;8.07;5.95;;;;;;;30.58;48.55;96662.47;5113233;28;20054;-62
2021/06/29 05:17:25;;;;;;;9.85;6.40;;;;;;;30.69;48.60;96658.47;5115243;28;20050;-64
2021/06/29 05:19:51;;;;;;;8.88;5.95;;;;;;;30.82;48.08;96657.88;5113486;28;20131;-64
2021/06/29 05:22:16;;;;;;;9.40;6.03;;;;;;;30.96;47.20;96658.91;5113473;28;20047;-68
2021/06/29 05:24:42;;;;;;;9.10;6.03;;;;;;;31.15;47.27;96665.59;5113339;28;20028;-67
2021/06/29 05:27:08;;;;;;;11.10;6.40;;;;;;;31.28;45.98;96660.38;5113320;28;20023;-66
2021/06/29 05:29:34;;;;;;;10.38;5.72;;;;;;;31.32;45.83;96665.41;5113262;28;20032;-69
2021/06/29 05:31:59;;;;;;;8.80;5.18;;;;;;;31.32;45.92;96668.09;5113295;28;20020;-66
2021/06/29 05:34:25;;;;;;;8.30;5.70;;;;;;;31.49;45.31;96657.97;5113266;28;20020;-69
2021/06/29 05:36:50;;;;;;;7.25;5.20;;;;;;;31.60;45.20;96657.47;5113225;28;20024;-68
2021/06/29 05:39:17;;;;;;;8.52;5.20;;;;;;;31.76;44.98;96653.69;5113277;28;20020;-67
2021/06/29 05:41:44;;;;;;;9.02;5.53;;;;;;;31.75;45.21;96657.44;5113398;28;20028;-66
2021/06/29 05:44:09;;;;;;;9.45;5.72;;;;;;;31.88;45.67;96661.34;5113088;28;20012;-66
2021/06/29 05:46:35;;;;;;;12.40;5.30;;;;;;;32.01;44.94;96658.81;5113164;28;20027;-66
2021/06/29 05:49:03;;;;;;;9.10;4.90;;;;;;;32.08;46.21;96655.31;5113166;28;20047;-66
2021/06/29 05:51:28;;;;;;;6.30;4.60;;;;;;;32.17;46.19;96651.44;5113125;28;20030;-66
2021/06/29 05:53:54;;;;;;;8.63;5.13;;;;;;;32.09;43.68;96651.59;5113206;28;20020;-66
2021/06/29 05:56:20;;;;;;;7.72;5.25;;;;;;;32.02;44.92;96649.66;5113224;28;20020;-64
2021/06/29 05:58:45;;;;;;;8.13;5.30;;;;;;;32.21;43.95;96652.75;5113068;28;20038;-67
2021/06/29 06:01:11;;;;;;;6.85;5.18;;;;;;;32.45;44.45;96663.34;5113048;28;20035;-69
2021/06/29 06:03:36;;;;;;;9.02;5.65;;;;;;;32.70;45.13;96666.50;5113017;28;20426;-65
2021/06/29 06:06:02;;;;;;;7.88;4.70;;;;;;;32.95;44.69;96666.03;5112975;28;20027;-67
2021/06/29 06:08:29;;;;;;;8.75;5.03;;;;;;;33.23;43.45;96670.59;5115223;28;20489;-65
2021/06/29 06:10:55;;;;;;;9.10;5.10;;;;;;;33.43;44.35;96667.16;5116851;28;20058;-68
2021/06/29 06:13:20;;;;;;;8.60;5.55;;;;;;;33.56;42.54;96663.69;5116810;28;20094;-65
2021/06/29 06:15:46;;;;;;;7.22;4.75;;;;;;;33.74;42.87;96662.31;5116465;28;20039;-68
2021/06/29 06:18:12;;;;;;;9.25;5.68;;;;;;;33.83;42.54;96658.34;5116592;28;20028;-64
2021/06/29 06:20:38;;;;;;;8.00;5.07;;;;;;;33.90;41.76;96652.97;5116623;28;20061;-62
2021/06/29 06:23:05;;;;;;;11.15;5.57;;;;;;;34.09;40.80;96650.47;5116760;28;20028;-65
2021/06/29 06:25:31;;;;;;;8.43;4.95;;;;;;;34.00;40.87;96650.69;5116508;28;20107;-66
2021/06/29 06:27:57;;;;;;;10.77;5.95;;;;;;;34.05;41.38;96655.50;5116399;28;20016;-66
2021/06/29 06:30:23;;;;;;;6.70;4.82;;;;;;;34.13;42.08;96651.78;5116482;28;20027;-67
2021/06/29 06:32:48;;;;;;;8.43;5.30;;;;;;;34.28;41.88;96657.84;5116413;28;20061;-65
2021/06/29 06:35:14;;;;;;;9.98;5.20;;;;;;;34.32;41.27;96652.84;5116387;28;20030;-64
2021/06/29 06:37:39;;;;;;;9.68;5.80;;;;;;;34.45;41.21;96657.44;5116275;28;20503;-64
2021/06/29 06:40:06;;;;;;;8.90;5.18;;;;;;;34.42;39.78;96649.69;5116211;28;20034;-62
2021/06/29 06:42:32;;;;;;;7.20;5.53;;;;;;;34.47;41.14;96659.94;5116256;28;20016;-66
2021/06/29 06:44:58;;;;;;;11.18;5.13;;;;;;;34.63;40.21;96661.38;5115967;28;20377;-64
2021/06/29 06:47:24;;;;;;;10.60;5.32;;;;;;;34.82;40.28;96664.34;5116104;28;20491;-62
2021/06/29 06:49:50;;;;;;;10.13;5.72;;;;;;;34.93;40.04;96666.41;5116073;28;20035;-65
2021/06/29 06:52:16;;;;;;;8.27;5.05;;;;;;;34.74;39.56;96663.53;5115928;28;20069;-64
2021/06/29 06:54:42;;;;;;;7.75;5.28;;;;;;;34.65;40.65;96664.75;5115876;28;20055;-63
2021/06/29 06:57:09;;;;;;;7.63;5.65;;;;;;;34.93;39.55;96669.13;5115908;28;20051;-64
2021/06/29 06:59:35;;;;;;;6.00;5.45;;;;;;;35.23;40.11;96670.53;5115920;28;20020;-66
2021/06/29 07:02:00;;;;;;;9.32;5.47;;;;;;;35.41;39.63;96668.00;5115778;28;20042;-67
2021/06/29 07:04:26;;;;;;;6.95;4.93;;;;;;;35.64;39.06;96669.34;5115591;28;20069;-66
2021/06/29 07:06:52;;;;;;;15.45;5.40;;;;;;;35.69;38.38;96674.16;5115696;28;20065;-66
2021/06/29 07:09:17;;;;;;;8.52;5.47;;;;;;;35.52;38.79;96666.47;5115563;28;20421;-67
2021/06/29 07:11:43;;;;;;;7.50;4.90;;;;;;;35.71;38.89;96674.78;5115553;28;20516;-65
2021/06/29 07:14:10;;;;;;;7.85;5.60;;;;;;;35.42;37.85;96674.25;5115395;28;20070;-63
2021/06/29 07:16:35;;;;;;;7.32;5.38;;;;;;;35.40;38.77;96666.28;5115537;28;20149;-66
2021/06/29 07:19:01;;;;;;;10.52;5.05;;;;;;;35.35;39.31;96668.00;5115421;28;20459;-65
2021/06/29 07:21:27;;;;;;;7.32;5.75;;;;;;;35.15;39.18;96661.56;5115448;28;20069;-62
2021/06/29 07:23:54;;;;;;;10.50;6.32;;;;;;;35.35;39.19;96663.41;5115430;28;20041;-66
2021/06/29 07:26:20;;;;;;;7.15;5.55;;;;;;;35.53;39.91;96659.16;5115271;28;20099;-64
2021/06/29 07:28:47;;;;;;;11.25;5.82;;;;;;;35.84;40.41;96664.91;5115198;28;20556;-65
2021/06/29 07:31:13;;;;;;;6.40;4.88;;;;;;;36.02;38.60;96665.00;5115182;28;20072;-66
2021/06/29 07:33:39;;;;;;;11.13;5.05;;;;;;;36.13;37.53;96666.19;5115351;28;20031;-63
2021/06/29 07:36:05;;;;;;;8.07;5.68;;;;;;;36.14;37.47;96667.00;5115146;28;20075;-66
2021/06/29 07:38:31;;;;;;;13.10;6.00;;;;;;;36.07;37.90;96666.22;5097108;28;20102;-66
2021/06/29 07:40:56;;;;;;;9.25;5.75;;;;;;;35.99;36.86;96668.16;5115071;28;20023;-66
2021/06/29 07:43:22;;;;;;;8.00;6.20;;;;;;;35.94;38.27;96665.25;5115006;28;20093;-64
2021/06/29 07:45:48;;;;;;;7.75;5.53;;;;;;;35.95;39.92;96666.06;5114905;28;20073;-62
2021/06/29 07:48:14;;;;;;;10.85;5.88;;;;;;;36.06;38.05;96667.28;5114929;28;20030;-67
2021/06/29 07:50:39;;;;;;;9.75;6.25;;;;;;;36.09;36.74;96672.28;5114883;28;20028;-63
2021/06/29 07:53:05;;;;;;;7.90;5.60;;;;;;;36.19;38.02;96667.19;5114874;28;20051;-66
2021/06/29 07:55:31;;;;;;;9.48;6.47;;;;;;;36.16;37.00;96670.34;5114785;28;20032;-66
2021/06/29 07:57:57;;;;;;;8.88;6.65;;;;;;;36.12;37.25;96661.78;5114671;28;20019;-65
2021/06/29 08:00:23;;;;;;;10.05;6.80;;;;;;;36.23;39.96;96671.16;5114685;28;20031;-62
2021/06/29 08:02:49;;;;;;;10.65;6.70;;;;;;;35.86;36.55;96668.22;5114620;28;20027;-64
2021/06/29 08:05:15;;;;;;;9.98;6.45;;;;;;;35.16;39.09;96673.25;5114622;28;20380;-66
2021/06/29 08:07:40;;;;;;;10.18;6.53;;;;;;;35.07;40.45;96669.09;5114580;28;20537;-64
2021/06/29 08:10:08;;;;;;;7.57;6.15;;;;;;;35.12;42.63;96667.41;5114529;28;20020;-68
2021/06/29 08:12:34;;;;;;;13.88;6.88;;;;;;;35.31;40.07;96666.75;5114454;28;20019;-66
2021/06/29 08:15:00;;;;;;;11.35;6.65;;;;;;;35.50;39.25;96660.44;5114274;28;20044;-63
2021/06/29 08:17:28;;;;;;;9.98;6.90;;;;;;;35.41;39.64;96659.00;5114327;28;20023;-64
2021/06/29 08:19:55;;;;;;;9.68;6.20;;;;;;;35.49;40.65;96666.91;5114409;28;20051;-65
2021/06/29 08:22:22;;;;;;;7.07;5.43;;;;;;;35.32;39.81;96657.56;5114400;28;20389;-65
2021/06/29 08:24:48;;;;;;;9.20;7.32;;;;;;;35.23;39.16;96663.22;5114153;28;20026;-64
2021/06/29 08:27:14;;;;;;;10.98;6.55;;;;;;;35.06;40.97;96659.28;5114356;28;20023;-67
2021/06/29 08:29:43;;;;;;;8.25;6.22;;;;;;;35.20;41.00;96655.50;5113878;28;20480;-64
2021/06/29 08:32:09;;;;;;;10.27;6.75;;;;;;;35.25;41.62;96654.88;5113625;28;20088;-62
2021/06/29 08:34:35;;;;;;;9.80;6.63;;;;;;;35.19;40.29;96655.72;5114007;28;20055;-62
2021/06/29 08:37:01;;;;;;;10.48;7.68;;;;;;;35.30;39.29;96657.75;5114013;28;20110;-66
2021/06/29 08:39:26;;;;;;;11.40;6.93;;;;;;;35.37;40.52;96652.31;5114127;28;20023;-61
2021/06/29 08:41:52;;;;;;;8.82;6.18;;;;;;;35.66;41.09;96650.09;5113942;28;20027;-66
2021/06/29 08:44:18;;;;;;;11.27;7.18;;;;;;;35.72;39.36;96646.53;5113757;28;20055;-63
2021/06/29 08:46:44;;;;;;;10.52;6.47;;;;;;;35.55;39.02;96646.19;5113762;28;20028;-60
2021/06/29 08:49:12;;;;;;;14.77;6.40;;;;;;;35.67;39.87;96649.88;5114016;28;20157;-64
2021/06/29 08:51:38;;;;;;;8.73;7.20;;;;;;;35.77;38.88;96649.44;5113847;28;20012;-65
2021/06/29 08:54:04;;;;;;;8.07;7.13;;;;;;;35.57;38.49;96640.53;5113679;28;20034;-65
2021/06/29 08:56:30;;;;;;;12.88;7.65;;;;;;;35.49;39.90;96639.72;5113670;28;20023;-63
2021/06/29 08:58:57;;;;;;;10.63;7.13;;;;;;;35.58;40.88;96634.03;5113774;28;20019;-66
2021/06/29 09:01:27;;;;;;;8.05;7.20;;;;;;;35.52;39.40;96635.75;5113707;28;20023;-65
2021/06/29 09:03:54;;;;;;;9.70;6.68;;;;;;;35.59;38.57;96636.53;5113747;28;20081;-64
2021/06/29 09:06:30;;;;;;;9.70;6.60;;;;;;;35.54;37.76;96634.47;5113520;28;20032;-63
2021/06/29 09:08:55;;;;;;;13.30;7.90;;;;;;;35.34;40.74;96636.44;5095500;28;20023;-65
2021/06/29 09:11:21;;;;;;;9.20;7.30;;;;;;;35.20;39.21;96636.50;5113596;28;20016;-64
2021/06/29 09:14:04;;;;;;;12.98;7.20;;;;;;;35.06;42.25;96637.56;5113596;28;20040;-63
2021/06/29 09:16:29;;;;;;;8.85;7.45;;;;;;;34.89;39.24;96632.56;5113551;28;20039;-64
2021/06/29 09:18:55;;;;;;;11.48;7.38;;;;;;;34.53;41.77;96627.34;5113419;28;20431;-64
2021/06/29 09:21:24;;;;;;;8.70;7.13;;;;;;;34.48;43.50;96627.16;5113442;28;20461;-64
2021/06/29 09:23:51;;;;;;;12.82;7.93;;;;;;;34.49;43.30;96628.81;5113530;28;20023;-63
2021/06/29 09:26:23;;;;;;;8.77;7.53;;;;;;;34.72;43.39;96630.31;5113325;28;20049;-66
2021/06/29 09:28:55;;;;;;;13.65;7.80;;;;;;;34.79;41.14;96630.28;5113424;28;20035;-63
2021/06/29 09:31:27;;;;;;;13.02;7.85;;;;;;;34.73;39.33;96625.72;5113400;28;20020;-62
2021/06/29 09:34:03;;;;;;;11.90;7.68;;;;;;;34.63;42.56;96620.66;5095090;28;20499;-62
2021/06/29 09:36:32;;;;;;;13.35;7.68;;;;;;;33.89;41.01;96618.75;5113433;28;20036;-63
2021/06/29 09:39:01;;;;;;;8.73;7.57;;;;;;;33.62;44.35;96618.69;5113388;28;20098;-66
2021/06/29 09:41:30;;;;;;;8.45;7.18;;;;;;;33.84;44.28;96618.53;5114010;28;20031;-62
2021/06/29 09:44:04;;;;;;;14.68;8.35;;;;;;;34.06;41.33;96608.31;5117404;28;20031;-66
2021/06/29 09:46:29;;;;;;;16.13;7.57;;;;;;;34.20;41.51;96614.63;5117160;28;20039;-65
2021/06/29 09:48:59;;;;;;;11.45;7.70;;;;;;;34.09;43.07;96613.34;5117400;28;20034;-63
2021/06/29 09:51:29;;;;;;;8.63;7.32;;;;;;;34.13;44.23;96611.91;5117421;28;20035;-65
2021/06/29 09:53:58;;;;;;;10.13;7.28;;;;;;;34.22;42.61;96611.72;5117338;28;20035;-62
2021/06/29 09:56:31;;;;;;;11.85;7.43;;;;;;;34.25;41.82;96606.69;5117068;28;20110;-65
2021/06/29 09:58:59;;;;;;;16.60;7.30;;;;;;;34.31;42.30;96604.22;5117092;28;20031;-66
2021/06/29 10:01:29;;;;;;;8.43;6.82;;;;;;;34.12;39.21;96598.53;5117091;28;20031;-64
2021/06/29 10:03:56;;;;;;;10.40;6.93;;;;;;;33.97;39.98;96599.56;5117149;28;20046;-68
2021/06/29 10:06:27;;;;;;;10.10;7.20;;;;;;;33.67;43.61;96599.09;5116988;28;20419;-66
2021/06/29 10:09:02;;;;;;;9.65;7.05;;;;;;;33.51;41.80;96598.38;5116799;28;20484;-63
2021/06/29 10:11:33;;;;;;;12.95;7.43;;;;;;;33.49;42.21;96595.88;5116978;28;20103;-66
2021/06/29 10:14:14;;;;;;;11.63;8.00;;;;;;;33.43;46.53;96591.28;5116528;28;20038;-64
2021/06/29 10:16:42;;;;;;;;;;;;;;;33.06;45.86;96601.53;5117222;28;20031;-68
2021/06/29 10:21:39;;;;;;;12.25;6.75;;;;;;;33.38;44.06;96591.06;5116686;28;20388;-63
2021/06/29 10:24:09;;;;;;;10.80;6.78;;;;;;;33.48;44.72;96590.66;5116415;28;20557;-67
2021/06/29 10:26:39;;;;;;;11.55;7.63;;;;;;;33.55;40.27;96582.56;5116516;28;20544;-64
2021/06/29 10:29:08;;;;;;;8.35;6.45;;;;;;;33.09;42.76;96579.47;5116538;28;20028;-66
2021/06/29 10:31:37;;;;;;;9.10;7.43;;;;;;;33.07;48.49;96582.38;5116500;28;20022;-64
2021/06/29 10:34:08;;;;;;;11.73;6.53;;;;;;;32.92;45.40;96582.47;5116278;28;20536;-63
2021/06/29 10:36:38;;;;;;;14.98;7.40;;;;;;;33.00;43.67;96579.63;5116364;28;20055;-63
2021/06/29 10:39:05;;;;;;;13.80;7.40;;;;;;;33.09;46.43;96583.03;5116284;28;20477;-67
2021/06/29 10:41:34;;;;;;;8.75;6.78;;;;;;;33.18;44.03;96580.13;5116374;28;20023;-66
2021/06/29 10:44:00;;;;;;;11.93;6.47;;;;;;;33.23;42.46;96570.34;5116166;28;20031;-63
2021/06/29 10:46:29;;;;;;;8.25;6.60;;;;;;;33.32;42.04;96571.03;5097776;28;20020;-62
2021/06/29 10:49:33;;;;;;;9.43;6.90;;;;;;;33.35;41.92;96567.09;5116092;28;20020;-60
2021/06/29 10:52:03;;;;;;;14.00;7.25;;;;;;;33.03;44.47;96568.41;5116218;28;20028;-64
2021/06/29 10:54:34;;;;;;;8.23;6.78;;;;;;;32.47;43.22;96562.00;5115490;28;20020;-65
2021/06/29 10:57:07;;;;;;;8.63;6.95;;;;;;;32.09;42.83;96559.63;5115963;28;20031;-60
2021/06/29 10:59:34;;;;;;;8.13;6.88;;;;;;;32.10;43.52;96564.84;5116002;28;20023;-68
2021/06/29 11:02:00;;;;;;;8.63;7.45;;;;;;;32.21;44.27;96546.41;5116097;28;20020;-60
2021/06/29 11:04:47;;;;;;;10.02;7.22;;;;;;;32.41;42.79;96549.25;5115890;28;20508;-67
2021/06/29 11:07:37;;;;;;;10.85;7.95;;;;;;;32.64;44.98;96545.47;5115810;28;20061;-64
2021/06/29 11:10:09;;;;;;;8.30;6.75;;;;;;;32.59;44.62;96542.56;5103295;28;20038;-66
2021/06/29 11:12:46;;;;;;;7.82;7.05;;;;;;;32.65;44.89;96537.16;5115612;28;20050;-64
2021/06/29 11:15:13;;;;;;;9.45;6.50;;;;;;;32.74;42.54;96531.56;5115642;28;20044;-65
2021/06/29 11:17:51;;;;;;;8.68;6.68;;;;;;;32.92;40.89;96536.44;5115548;28;20024;-63
2021/06/29 11:20:26;;;;;;;7.82;6.25;;;;;;;32.49;39.89;96532.06;5115556;28;20020;-64
2021/06/29 11:22:57;;;;;;;9.98;6.82;;;;;;;32.22;40.99;96526.44;5115514;28;20080;-64
2021/06/29 11:25:50;;;;;;;8.60;7.13;;;;;;;32.17;41.71;96524.31;5115488;28;20016;-66
2021/06/29 11:28:21;;;;;;;7.10;6.40;;;;;;;32.36;41.60;96521.97;5115539;28;20495;-65
2021/06/29 11:30:59;;;;;;;9.75;6.65;;;;;;;32.57;40.64;96531.91;5115334;28;20054;-62
2021/06/29 11:33:31;;;;;;;10.23;6.68;;;;;;;32.50;43.57;96531.03;5115205;28;20118;-65
2021/06/29 11:35:57;;;;;;;10.63;6.75;;;;;;;32.57;43.90;96522.97;5115325;28;20027;-64
2021/06/29 11:38:39;;;;;;;10.88;6.00;;;;;;;32.65;44.51;96515.50;5115119;28;20036;-63